LTAU/ASR METAR and TAF weather

Enter ICAO airport designator
Station Type Date Time Source
LTAU METAR 2020/01/22 20:50 UTC NOAA

LTAU 222050Z 05003KT CAVOK M06/M08 Q1022 NOSIG


Station Type Date Time Source
LTAU Decoded METAR 2020/01/22 20:50 UTC NOAA

Kayseri / Erkilet, Turkey (LTAU) 38-47N 035-29E 1054M
Jan 22, 2020 - 03:50 PM EST / 2020.01.22 2050 UTC
Wind: from the NE (050 degrees) at 3 MPH (3 KT):0
Visibility: greater than 7 mile(s):0
Temperature: 21 F (-6 C)
Dew Point: 17 F (-8 C)
Relative Humidity: 85%
Pressure (altimeter): 30.18 in. Hg (1022 hPa)
ob: LTAU 222050Z 05003KT CAVOK M06/M08 Q1022 NOSIG
cycle: 21

Station Type Date Time Source
LTAU TAF 2020/01/22 18:03 UTC NOAA

TAF LTAU 221640Z 2218/2318 VRB02KT CAVOK
TEMPO 2303/2307 FEW040
BECMG 2307/2310 29012KT SCT040 BKN100
BECMG 2310/2313 BKN025 BKN080
TEMPO 2313/2317 -SN

Example: see airport list